sensor_id;sensor_type;location;lat;lon;timestamp;P1;durP1;ratioP1;P2;durP2;ratioP2
56481;SDS011;42384;45.186;19.958;2022-10-29T00:02:11;162.65;;;30.08;;
56481;SDS011;42384;45.186;19.958;2022-10-29T00:04:37;138.13;;;28.67;;
56481;SDS011;42384;45.186;19.958;2022-10-29T00:07:03;120.53;;;29.80;;
56481;SDS011;42384;45.186;19.958;2022-10-29T00:09:29;206.00;;;31.55;;
56481;SDS011;42384;45.186;19.958;2022-10-29T00:11:55;106.10;;;28.20;;
56481;SDS011;42384;45.186;19.958;2022-10-29T00:14:21;113.18;;;29.20;;
56481;SDS011;42384;45.186;19.958;2022-10-29T00:16:47;110.07;;;29.37;;
56481;SDS011;42384;45.186;19.958;2022-10-29T00:19:13;155.13;;;30.20;;
56481;SDS011;42384;45.186;19.958;2022-10-29T00:21:39;94.63;;;28.40;;
56481;SDS011;42384;45.186;19.958;2022-10-29T00:24:07;256.97;;;33.13;;
56481;SDS011;42384;45.186;19.958;2022-10-29T00:26:34;81.75;;;28.65;;
56481;SDS011;42384;45.186;19.958;2022-10-29T00:29:00;70.13;;;28.03;;
56481;SDS011;42384;45.186;19.958;2022-10-29T00:31:26;127.67;;;29.83;;
56481;SDS011;42384;45.186;19.958;2022-10-29T00:33:52;150.20;;;29.53;;
56481;SDS011;42384;45.186;19.958;2022-10-29T00:36:27;153.13;;;30.92;;
56481;SDS011;42384;45.186;19.958;2022-10-29T00:38:53;43.10;;;25.88;;
56481;SDS011;42384;45.186;19.958;2022-10-29T00:41:25;49.72;;;24.70;;
56481;SDS011;42384;45.186;19.958;2022-10-29T00:44:21;71.30;;;26.58;;
56481;SDS011;42384;45.186;19.958;2022-10-29T00:46:38;105.03;;;26.75;;
56481;SDS011;42384;45.186;19.958;2022-10-29T00:51:31;69.63;;;25.40;;
56481;SDS011;42384;45.186;19.958;2022-10-29T00:54:01;175.63;;;27.50;;
56481;SDS011;42384;45.186;19.958;2022-10-29T00:56:29;151.63;;;28.48;;
56481;SDS011;42384;45.186;19.958;2022-10-29T00:58:57;169.93;;;28.42;;
56481;SDS011;42384;45.186;19.958;2022-10-29T01:01:23;124.27;;;27.97;;
56481;SDS011;42384;45.186;19.958;2022-10-29T01:03:50;112.50;;;30.23;;
56481;SDS011;42384;45.186;19.958;2022-10-29T01:06:18;137.85;;;32.05;;
56481;SDS011;42384;45.186;19.958;2022-10-29T01:08:44;60.70;;;30.27;;
56481;SDS011;42384;45.186;19.958;2022-10-29T01:16:23;187.67;;;33.20;;
56481;SDS011;42384;45.186;19.958;2022-10-29T01:24:15;223.43;;;34.72;;
56481;SDS011;42384;45.186;19.958;2022-10-29T01:27:27;135.88;;;31.50;;
56481;SDS011;42384;45.186;19.958;2022-10-29T01:39:55;213.23;;;34.95;;
56481;SDS011;42384;45.186;19.958;2022-10-29T01:42:26;139.38;;;32.33;;
56481;SDS011;42384;45.186;19.958;2022-10-29T01:47:21;169.10;;;31.43;;
56481;SDS011;42384;45.186;19.958;2022-10-29T01:49:53;97.80;;;29.17;;
56481;SDS011;42384;45.186;19.958;2022-10-29T01:52:22;191.07;;;29.20;;
56481;SDS011;42384;45.186;19.958;2022-10-29T01:54:50;165.35;;;29.38;;
56481;SDS011;42384;45.186;19.958;2022-10-29T01:59:52;289.38;;;34.25;;
56481;SDS011;42384;45.186;19.958;2022-10-29T02:02:23;139.48;;;29.13;;
56481;SDS011;42384;45.186;19.958;2022-10-29T02:07:42;78.10;;;27.73;;
56481;SDS011;42384;45.186;19.958;2022-10-29T02:10:13;83.72;;;25.60;;
56481;SDS011;42384;45.186;19.958;2022-10-29T02:15:09;94.70;;;23.27;;
56481;SDS011;42384;45.186;19.958;2022-10-29T02:17:37;82.45;;;23.30;;
56481;SDS011;42384;45.186;19.958;2022-10-29T02:20:04;85.78;;;23.08;;
56481;SDS011;42384;45.186;19.958;2022-10-29T02:22:30;106.55;;;24.88;;
56481;SDS011;42384;45.186;19.958;2022-10-29T02:24:57;65.55;;;24.48;;
56481;SDS011;42384;45.186;19.958;2022-10-29T02:27:23;42.70;;;23.70;;
56481;SDS011;42384;45.186;19.958;2022-10-29T02:29:49;38.60;;;22.48;;
56481;SDS011;42384;45.186;19.958;2022-10-29T02:32:16;84.33;;;26.30;;
56481;SDS011;42384;45.186;19.958;2022-10-29T02:34:42;120.07;;;28.23;;
56481;SDS011;42384;45.186;19.958;2022-10-29T02:37:08;117.73;;;28.73;;
56481;SDS011;42384;45.186;19.958;2022-10-29T02:39:34;132.40;;;31.02;;
56481;SDS011;42384;45.186;19.958;2022-10-29T02:42:01;131.37;;;32.70;;
56481;SDS011;42384;45.186;19.958;2022-10-29T02:44:27;124.07;;;32.47;;
56481;SDS011;42384;45.186;19.958;2022-10-29T02:46:54;94.43;;;27.73;;
56481;SDS011;42384;45.186;19.958;2022-10-29T02:49:20;84.93;;;24.07;;
56481;SDS011;42384;45.186;19.958;2022-10-29T02:51:46;94.07;;;23.95;;
56481;SDS011;42384;45.186;19.958;2022-10-29T02:54:13;54.87;;;22.03;;
56481;SDS011;42384;45.186;19.958;2022-10-29T02:56:39;57.67;;;21.60;;
56481;SDS011;42384;45.186;19.958;2022-10-29T02:59:05;55.53;;;21.60;;
56481;SDS011;42384;45.186;19.958;2022-10-29T03:01:31;56.85;;;21.48;;
56481;SDS011;42384;45.186;19.958;2022-10-29T03:03:58;184.97;;;25.63;;
56481;SDS011;42384;45.186;19.958;2022-10-29T03:06:24;176.80;;;26.80;;
56481;SDS011;42384;45.186;19.958;2022-10-29T03:08:50;102.82;;;21.73;;
56481;SDS011;42384;45.186;19.958;2022-10-29T03:11:16;166.70;;;25.33;;
56481;SDS011;42384;45.186;19.958;2022-10-29T03:13:43;146.40;;;23.20;;
56481;SDS011;42384;45.186;19.958;2022-10-29T03:16:09;124.20;;;25.80;;
56481;SDS011;42384;45.186;19.958;2022-10-29T03:18:35;88.75;;;22.73;;
56481;SDS011;42384;45.186;19.958;2022-10-29T03:21:02;165.38;;;25.88;;
56481;SDS011;42384;45.186;19.958;2022-10-29T03:23:28;114.97;;;24.52;;
56481;SDS011;42384;45.186;19.958;2022-10-29T03:25:54;91.47;;;23.33;;
56481;SDS011;42384;45.186;19.958;2022-10-29T03:28:21;152.82;;;24.83;;
56481;SDS011;42384;45.186;19.958;2022-10-29T03:30:48;102.57;;;26.23;;
56481;SDS011;42384;45.186;19.958;2022-10-29T03:33:14;246.63;;;30.60;;
56481;SDS011;42384;45.186;19.958;2022-10-29T03:35:40;78.20;;;26.07;;
56481;SDS011;42384;45.186;19.958;2022-10-29T03:38:07;103.17;;;26.33;;
56481;SDS011;42384;45.186;19.958;2022-10-29T03:40:33;103.05;;;25.48;;
56481;SDS011;42384;45.186;19.958;2022-10-29T03:42:59;94.20;;;27.40;;
56481;SDS011;42384;45.186;19.958;2022-10-29T03:45:25;89.37;;;26.67;;
56481;SDS011;42384;45.186;19.958;2022-10-29T03:47:52;76.20;;;25.23;;
56481;SDS011;42384;45.186;19.958;2022-10-29T03:50:18;111.23;;;25.20;;
56481;SDS011;42384;45.186;19.958;2022-10-29T03:52:44;182.50;;;28.97;;
56481;SDS011;42384;45.186;19.958;2022-10-29T03:55:11;169.83;;;28.10;;
56481;SDS011;42384;45.186;19.958;2022-10-29T03:57:37;180.30;;;29.10;;
56481;SDS011;42384;45.186;19.958;2022-10-29T04:00:03;186.75;;;28.20;;
56481;SDS011;42384;45.186;19.958;2022-10-29T04:02:30;125.25;;;26.45;;
56481;SDS011;42384;45.186;19.958;2022-10-29T04:04:56;80.17;;;25.37;;
56481;SDS011;42384;45.186;19.958;2022-10-29T04:07:22;121.97;;;25.43;;
56481;SDS011;42384;45.186;19.958;2022-10-29T04:09:48;74.53;;;25.42;;
56481;SDS011;42384;45.186;19.958;2022-10-29T04:12:14;85.83;;;25.37;;
56481;SDS011;42384;45.186;19.958;2022-10-29T04:14:40;95.60;;;24.13;;
56481;SDS011;42384;45.186;19.958;2022-10-29T04:17:08;91.37;;;24.00;;
56481;SDS011;42384;45.186;19.958;2022-10-29T04:19:36;125.05;;;22.27;;
56481;SDS011;42384;45.186;19.958;2022-10-29T04:22:02;131.25;;;23.40;;
56481;SDS011;42384;45.186;19.958;2022-10-29T04:24:28;121.47;;;23.73;;
56481;SDS011;42384;45.186;19.958;2022-10-29T04:26:54;84.70;;;21.90;;
56481;SDS011;42384;45.186;19.958;2022-10-29T04:29:21;170.10;;;24.37;;
56481;SDS011;42384;45.186;19.958;2022-10-29T04:31:47;159.73;;;25.53;;
56481;SDS011;42384;45.186;19.958;2022-10-29T04:34:13;142.20;;;25.63;;
56481;SDS011;42384;45.186;19.958;2022-10-29T04:36:39;143.00;;;24.17;;
56481;SDS011;42384;45.186;19.958;2022-10-29T04:39:06;168.33;;;23.23;;
56481;SDS011;42384;45.186;19.958;2022-10-29T04:41:32;130.52;;;21.85;;
56481;SDS011;42384;45.186;19.958;2022-10-29T04:43:59;231.95;;;24.95;;
56481;SDS011;42384;45.186;19.958;2022-10-29T04:46:25;196.98;;;24.48;;
56481;SDS011;42384;45.186;19.958;2022-10-29T04:48:52;135.63;;;22.03;;
56481;SDS011;42384;45.186;19.958;2022-10-29T04:51:22;147.97;;;22.63;;
56481;SDS011;42384;45.186;19.958;2022-10-29T04:53:49;165.40;;;24.10;;
56481;SDS011;42384;45.186;19.958;2022-10-29T04:56:15;101.13;;;22.20;;
56481;SDS011;42384;45.186;19.958;2022-10-29T04:58:42;130.95;;;21.13;;
56481;SDS011;42384;45.186;19.958;2022-10-29T05:01:08;79.22;;;19.20;;
56481;SDS011;42384;45.186;19.958;2022-10-29T05:03:34;85.83;;;20.67;;
56481;SDS011;42384;45.186;19.958;2022-10-29T05:06:01;65.60;;;19.92;;
56481;SDS011;42384;45.186;19.958;2022-10-29T05:08:28;60.47;;;20.15;;
56481;SDS011;42384;45.186;19.958;2022-10-29T05:10:54;38.03;;;18.53;;
56481;SDS011;42384;45.186;19.958;2022-10-29T05:13:20;49.20;;;19.97;;
56481;SDS011;42384;45.186;19.958;2022-10-29T05:15:50;45.50;;;17.87;;
56481;SDS011;42384;45.186;19.958;2022-10-29T05:18:16;23.67;;;16.38;;
56481;SDS011;42384;45.186;19.958;2022-10-29T05:20:43;66.93;;;19.67;;
56481;SDS011;42384;45.186;19.958;2022-10-29T05:23:10;78.32;;;20.92;;
56481;SDS011;42384;45.186;19.958;2022-10-29T05:25:37;70.65;;;20.48;;
56481;SDS011;42384;45.186;19.958;2022-10-29T05:28:04;63.50;;;19.98;;
56481;SDS011;42384;45.186;19.958;2022-10-29T05:30:31;85.10;;;19.27;;
56481;SDS011;42384;45.186;19.958;2022-10-29T05:32:58;36.80;;;19.23;;
56481;SDS011;42384;45.186;19.958;2022-10-29T05:35:24;60.15;;;21.58;;
56481;SDS011;42384;45.186;19.958;2022-10-29T05:37:51;83.10;;;24.63;;
56481;SDS011;42384;45.186;19.958;2022-10-29T05:40:18;104.55;;;25.27;;
56481;SDS011;42384;45.186;19.958;2022-10-29T05:42:44;129.30;;;26.10;;
56481;SDS011;42384;45.186;19.958;2022-10-29T05:45:11;118.40;;;25.87;;
56481;SDS011;42384;45.186;19.958;2022-10-29T05:47:37;251.50;;;29.27;;
56481;SDS011;42384;45.186;19.958;2022-10-29T05:50:03;129.30;;;26.73;;
56481;SDS011;42384;45.186;19.958;2022-10-29T05:52:30;198.20;;;27.08;;
56481;SDS011;42384;45.186;19.958;2022-10-29T05:54:56;231.17;;;28.77;;
56481;SDS011;42384;45.186;19.958;2022-10-29T05:57:22;170.07;;;28.53;;
56481;SDS011;42384;45.186;19.958;2022-10-29T05:59:48;174.37;;;27.90;;
56481;SDS011;42384;45.186;19.958;2022-10-29T06:02:14;111.63;;;24.05;;
56481;SDS011;42384;45.186;19.958;2022-10-29T06:04:41;133.83;;;26.53;;
56481;SDS011;42384;45.186;19.958;2022-10-29T06:07:07;143.23;;;26.47;;
56481;SDS011;42384;45.186;19.958;2022-10-29T06:09:33;164.82;;;28.50;;
56481;SDS011;42384;45.186;19.958;2022-10-29T06:11:59;118.90;;;23.75;;
56481;SDS011;42384;45.186;19.958;2022-10-29T06:14:26;112.22;;;24.90;;
56481;SDS011;42384;45.186;19.958;2022-10-29T06:16:52;246.93;;;26.80;;
56481;SDS011;42384;45.186;19.958;2022-10-29T06:19:18;120.97;;;25.03;;
56481;SDS011;42384;45.186;19.958;2022-10-29T06:21:44;157.93;;;25.40;;
56481;SDS011;42384;45.186;19.958;2022-10-29T06:24:11;209.70;;;25.73;;
56481;SDS011;42384;45.186;19.958;2022-10-29T06:26:38;173.70;;;25.27;;
56481;SDS011;42384;45.186;19.958;2022-10-29T06:29:04;111.85;;;24.95;;
56481;SDS011;42384;45.186;19.958;2022-10-29T06:31:30;136.07;;;24.73;;
56481;SDS011;42384;45.186;19.958;2022-10-29T06:33:57;171.07;;;25.23;;
56481;SDS011;42384;45.186;19.958;2022-10-29T06:36:23;153.25;;;24.60;;
56481;SDS011;42384;45.186;19.958;2022-10-29T06:38:49;124.90;;;25.33;;
56481;SDS011;42384;45.186;19.958;2022-10-29T06:41:15;81.23;;;22.87;;
56481;SDS011;42384;45.186;19.958;2022-10-29T06:43:42;107.47;;;22.50;;
56481;SDS011;42384;45.186;19.958;2022-10-29T06:46:08;159.57;;;23.43;;
56481;SDS011;42384;45.186;19.958;2022-10-29T06:48:34;195.45;;;24.63;;
56481;SDS011;42384;45.186;19.958;2022-10-29T06:51:00;126.03;;;24.73;;
56481;SDS011;42384;45.186;19.958;2022-10-29T06:53:26;81.38;;;21.63;;
56481;SDS011;42384;45.186;19.958;2022-10-29T06:55:53;128.75;;;26.63;;
56481;SDS011;42384;45.186;19.958;2022-10-29T06:58:19;69.72;;;23.33;;
56481;SDS011;42384;45.186;19.958;2022-10-29T07:00:46;106.30;;;25.02;;
56481;SDS011;42384;45.186;19.958;2022-10-29T07:03:14;106.78;;;23.50;;
56481;SDS011;42384;45.186;19.958;2022-10-29T07:05:40;96.50;;;22.95;;
56481;SDS011;42384;45.186;19.958;2022-10-29T07:08:06;101.97;;;23.83;;
56481;SDS011;42384;45.186;19.958;2022-10-29T07:10:33;177.87;;;25.87;;
56481;SDS011;42384;45.186;19.958;2022-10-29T07:12:59;116.82;;;23.33;;
56481;SDS011;42384;45.186;19.958;2022-10-29T07:15:26;182.05;;;26.45;;
56481;SDS011;42384;45.186;19.958;2022-10-29T07:18:02;257.23;;;28.83;;
56481;SDS011;42384;45.186;19.958;2022-10-29T07:20:30;117.85;;;24.13;;
56481;SDS011;42384;45.186;19.958;2022-10-29T07:22:56;96.40;;;23.38;;
56481;SDS011;42384;45.186;19.958;2022-10-29T07:25:24;77.97;;;21.63;;
56481;SDS011;42384;45.186;19.958;2022-10-29T07:27:50;55.43;;;21.57;;
56481;SDS011;42384;45.186;19.958;2022-10-29T07:30:17;74.27;;;20.57;;
56481;SDS011;42384;45.186;19.958;2022-10-29T07:32:43;70.45;;;21.02;;
56481;SDS011;42384;45.186;19.958;2022-10-29T07:35:09;91.20;;;21.25;;
56481;SDS011;42384;45.186;19.958;2022-10-29T07:37:36;54.23;;;21.93;;
56481;SDS011;42384;45.186;19.958;2022-10-29T07:40:02;61.90;;;26.60;;
56481;SDS011;42384;45.186;19.958;2022-10-29T07:42:28;67.70;;;24.98;;
56481;SDS011;42384;45.186;19.958;2022-10-29T07:44:55;241.65;;;31.33;;
56481;SDS011;42384;45.186;19.958;2022-10-29T07:47:21;49.08;;;25.02;;
56481;SDS011;42384;45.186;19.958;2022-10-29T07:49:47;63.55;;;29.00;;
56481;SDS011;42384;45.186;19.958;2022-10-29T07:52:13;52.03;;;24.95;;
56481;SDS011;42384;45.186;19.958;2022-10-29T07:54:39;39.30;;;22.87;;
56481;SDS011;42384;45.186;19.958;2022-10-29T07:57:06;127.60;;;43.17;;
56481;SDS011;42384;45.186;19.958;2022-10-29T07:59:32;100.97;;;59.30;;
56481;SDS011;42384;45.186;19.958;2022-10-29T08:01:58;40.80;;;18.23;;
56481;SDS011;42384;45.186;19.958;2022-10-29T08:04:24;52.87;;;33.73;;
56481;SDS011;42384;45.186;19.958;2022-10-29T08:06:50;75.43;;;20.90;;
56481;SDS011;42384;45.186;19.958;2022-10-29T08:09:16;57.60;;;33.03;;
56481;SDS011;42384;45.186;19.958;2022-10-29T08:11:43;57.08;;;26.17;;
56481;SDS011;42384;45.186;19.958;2022-10-29T08:14:09;33.90;;;22.15;;
56481;SDS011;42384;45.186;19.958;2022-10-29T08:16:36;83.70;;;25.92;;
56481;SDS011;42384;45.186;19.958;2022-10-29T08:19:03;80.55;;;21.10;;
56481;SDS011;42384;45.186;19.958;2022-10-29T08:21:29;51.80;;;22.77;;
56481;SDS011;42384;45.186;19.958;2022-10-29T08:23:55;50.55;;;34.88;;
56481;SDS011;42384;45.186;19.958;2022-10-29T08:26:21;138.90;;;21.58;;
56481;SDS011;42384;45.186;19.958;2022-10-29T08:28:47;44.38;;;21.15;;
56481;SDS011;42384;45.186;19.958;2022-10-29T08:31:14;42.10;;;18.27;;
56481;SDS011;42384;45.186;19.958;2022-10-29T08:33:40;50.40;;;19.88;;
56481;SDS011;42384;45.186;19.958;2022-10-29T08:36:07;37.10;;;20.42;;
56481;SDS011;42384;45.186;19.958;2022-10-29T08:38:33;67.78;;;20.50;;
56481;SDS011;42384;45.186;19.958;2022-10-29T08:46:17;36.45;;;22.83;;
56481;SDS011;42384;45.186;19.958;2022-10-29T08:48:46;50.20;;;25.17;;
56481;SDS011;42384;45.186;19.958;2022-10-29T08:53:46;44.50;;;27.30;;
56481;SDS011;42384;45.186;19.958;2022-10-29T08:56:24;51.10;;;28.35;;
56481;SDS011;42384;45.186;19.958;2022-10-29T08:59:04;48.80;;;25.35;;
56481;SDS011;42384;45.186;19.958;2022-10-29T09:01:31;55.22;;;27.10;;
56481;SDS011;42384;45.186;19.958;2022-10-29T09:03:58;46.13;;;25.90;;
56481;SDS011;42384;45.186;19.958;2022-10-29T09:11:53;47.22;;;29.25;;
56481;SDS011;42384;45.186;19.958;2022-10-29T09:17:15;44.17;;;27.80;;
56481;SDS011;42384;45.186;19.958;2022-10-29T09:22:21;43.45;;;27.45;;
56481;SDS011;42384;45.186;19.958;2022-10-29T09:27:23;40.80;;;27.95;;
56481;SDS011;42384;45.186;19.958;2022-10-29T09:29:51;45.03;;;27.90;;
56481;SDS011;42384;45.186;19.958;2022-10-29T09:32:21;41.88;;;28.15;;
56481;SDS011;42384;45.186;19.958;2022-10-29T09:34:50;41.42;;;28.63;;
56481;SDS011;42384;45.186;19.958;2022-10-29T09:37:40;42.03;;;29.67;;
56481;SDS011;42384;45.186;19.958;2022-10-29T09:40:04;44.70;;;30.42;;
56481;SDS011;42384;45.186;19.958;2022-10-29T09:42:35;41.03;;;26.13;;
56481;SDS011;42384;45.186;19.958;2022-10-29T09:45:03;48.17;;;32.20;;
56481;SDS011;42384;45.186;19.958;2022-10-29T09:47:50;218.35;;;144.55;;
56481;SDS011;42384;45.186;19.958;2022-10-29T09:50:34;49.63;;;31.73;;
56481;SDS011;42384;45.186;19.958;2022-10-29T09:53:05;44.42;;;28.00;;
56481;SDS011;42384;45.186;19.958;2022-10-29T09:55:39;44.17;;;27.48;;
56481;SDS011;42384;45.186;19.958;2022-10-29T09:58:06;44.22;;;28.45;;
56481;SDS011;42384;45.186;19.958;2022-10-29T10:00:32;42.75;;;28.70;;
56481;SDS011;42384;45.186;19.958;2022-10-29T10:05:26;45.78;;;27.67;;
56481;SDS011;42384;45.186;19.958;2022-10-29T10:08:03;43.13;;;28.15;;
56481;SDS011;42384;45.186;19.958;2022-10-29T10:10:31;44.47;;;27.73;;
56481;SDS011;42384;45.186;19.958;2022-10-29T10:13:02;49.72;;;30.92;;
56481;SDS011;42384;45.186;19.958;2022-10-29T10:15:34;46.13;;;29.30;;
56481;SDS011;42384;45.186;19.958;2022-10-29T10:18:05;46.80;;;30.23;;
56481;SDS011;42384;45.186;19.958;2022-10-29T10:20:42;46.78;;;30.05;;
56481;SDS011;42384;45.186;19.958;2022-10-29T10:23:23;47.50;;;30.58;;
56481;SDS011;42384;45.186;19.958;2022-10-29T10:25:51;48.80;;;30.65;;
56481;SDS011;42384;45.186;19.958;2022-10-29T10:28:19;50.63;;;31.15;;
56481;SDS011;42384;45.186;19.958;2022-10-29T10:33:32;44.10;;;28.98;;
56481;SDS011;42384;45.186;19.958;2022-10-29T10:36:03;47.60;;;31.85;;
56481;SDS011;42384;45.186;19.958;2022-10-29T10:38:46;46.28;;;30.35;;
56481;SDS011;42384;45.186;19.958;2022-10-29T10:41:15;47.55;;;31.45;;
56481;SDS011;42384;45.186;19.958;2022-10-29T10:43:44;42.05;;;28.38;;
56481;SDS011;42384;45.186;19.958;2022-10-29T10:46:21;46.17;;;29.13;;
56481;SDS011;42384;45.186;19.958;2022-10-29T10:48:58;51.92;;;31.27;;
56481;SDS011;42384;45.186;19.958;2022-10-29T10:54:28;47.70;;;32.78;;
56481;SDS011;42384;45.186;19.958;2022-10-29T10:56:59;43.88;;;30.05;;
56481;SDS011;42384;45.186;19.958;2022-10-29T10:59:28;44.70;;;31.00;;
56481;SDS011;42384;45.186;19.958;2022-10-29T11:01:55;39.42;;;25.60;;
56481;SDS011;42384;45.186;19.958;2022-10-29T11:04:27;50.90;;;31.10;;
56481;SDS011;42384;45.186;19.958;2022-10-29T11:06:56;53.05;;;31.65;;
56481;SDS011;42384;45.186;19.958;2022-10-29T11:09:34;49.38;;;29.55;;
56481;SDS011;42384;45.186;19.958;2022-10-29T11:12:04;45.90;;;30.48;;
56481;SDS011;42384;45.186;19.958;2022-10-29T11:14:32;45.15;;;30.55;;
56481;SDS011;42384;45.186;19.958;2022-10-29T11:17:00;49.75;;;32.88;;
56481;SDS011;42384;45.186;19.958;2022-10-29T11:26:51;46.17;;;31.83;;
56481;SDS011;42384;45.186;19.958;2022-10-29T11:34:15;47.80;;;32.83;;
56481;SDS011;42384;45.186;19.958;2022-10-29T11:36:46;48.38;;;33.08;;
56481;SDS011;42384;45.186;19.958;2022-10-29T11:39:19;46.95;;;31.42;;
56481;SDS011;42384;45.186;19.958;2022-10-29T11:41:53;47.55;;;31.90;;
56481;SDS011;42384;45.186;19.958;2022-10-29T11:44:20;47.83;;;31.52;;
56481;SDS011;42384;45.186;19.958;2022-10-29T11:57:40;45.13;;;32.35;;
56481;SDS011;42384;45.186;19.958;2022-10-29T12:10:24;53.67;;;33.35;;
56481;SDS011;42384;45.186;19.958;2022-10-29T12:12:58;50.28;;;33.03;;
56481;SDS011;42384;45.186;19.958;2022-10-29T12:15:27;52.58;;;32.20;;
56481;SDS011;42384;45.186;19.958;2022-10-29T12:18:00;49.00;;;32.13;;
56481;SDS011;42384;45.186;19.958;2022-10-29T12:20:31;49.15;;;32.38;;
56481;SDS011;42384;45.186;19.958;2022-10-29T12:23:02;45.47;;;31.88;;
56481;SDS011;42384;45.186;19.958;2022-10-29T12:28:13;46.28;;;31.50;;
56481;SDS011;42384;45.186;19.958;2022-10-29T12:31:07;49.45;;;32.05;;
56481;SDS011;42384;45.186;19.958;2022-10-29T12:33:33;52.72;;;31.45;;
56481;SDS011;42384;45.186;19.958;2022-10-29T12:36:07;50.00;;;31.55;;
56481;SDS011;42384;45.186;19.958;2022-10-29T12:38:36;46.63;;;31.17;;
56481;SDS011;42384;45.186;19.958;2022-10-29T12:41:11;43.75;;;29.48;;
56481;SDS011;42384;45.186;19.958;2022-10-29T12:43:38;43.55;;;30.48;;
56481;SDS011;42384;45.186;19.958;2022-10-29T12:51:53;42.92;;;29.35;;
56481;SDS011;42384;45.186;19.958;2022-10-29T12:56:50;41.63;;;28.92;;
56481;SDS011;42384;45.186;19.958;2022-10-29T13:01:51;45.05;;;29.77;;
56481;SDS011;42384;45.186;19.958;2022-10-29T13:04:21;47.80;;;31.00;;
56481;SDS011;42384;45.186;19.958;2022-10-29T13:09:24;43.17;;;29.98;;
56481;SDS011;42384;45.186;19.958;2022-10-29T13:11:51;51.38;;;32.60;;
56481;SDS011;42384;45.186;19.958;2022-10-29T13:17:23;48.33;;;32.40;;
56481;SDS011;42384;45.186;19.958;2022-10-29T13:19:53;46.08;;;31.70;;
56481;SDS011;42384;45.186;19.958;2022-10-29T13:22:31;51.47;;;33.83;;
56481;SDS011;42384;45.186;19.958;2022-10-29T13:27:42;44.85;;;29.65;;
56481;SDS011;42384;45.186;19.958;2022-10-29T13:32:37;44.90;;;30.85;;
56481;SDS011;42384;45.186;19.958;2022-10-29T13:37:54;47.88;;;31.38;;
56481;SDS011;42384;45.186;19.958;2022-10-29T13:45:29;48.72;;;33.75;;
56481;SDS011;42384;45.186;19.958;2022-10-29T13:50:22;49.70;;;34.97;;
56481;SDS011;42384;45.186;19.958;2022-10-29T13:52:52;52.92;;;37.90;;
56481;SDS011;42384;45.186;19.958;2022-10-29T13:55:35;55.90;;;36.58;;
56481;SDS011;42384;45.186;19.958;2022-10-29T13:58:04;58.92;;;38.47;;
56481;SDS011;42384;45.186;19.958;2022-10-29T14:00:32;53.50;;;37.25;;
56481;SDS011;42384;45.186;19.958;2022-10-29T14:03:22;49.10;;;34.30;;
56481;SDS011;42384;45.186;19.958;2022-10-29T14:05:50;50.40;;;34.83;;
56481;SDS011;42384;45.186;19.958;2022-10-29T14:08:22;53.75;;;34.80;;
56481;SDS011;42384;45.186;19.958;2022-10-29T14:10:53;51.97;;;34.33;;
56481;SDS011;42384;45.186;19.958;2022-10-29T14:18:31;51.47;;;34.25;;
56481;SDS011;42384;45.186;19.958;2022-10-29T14:20:58;51.85;;;34.45;;
56481;SDS011;42384;45.186;19.958;2022-10-29T14:23:25;52.03;;;32.42;;
56481;SDS011;42384;45.186;19.958;2022-10-29T14:25:53;47.72;;;35.08;;
56481;SDS011;42384;45.186;19.958;2022-10-29T14:30:57;47.83;;;33.58;;
56481;SDS011;42384;45.186;19.958;2022-10-29T14:33:25;46.33;;;32.75;;
56481;SDS011;42384;45.186;19.958;2022-10-29T14:35:52;48.88;;;33.55;;
56481;SDS011;42384;45.186;19.958;2022-10-29T14:38:20;53.92;;;33.83;;
56481;SDS011;42384;45.186;19.958;2022-10-29T14:40:47;48.00;;;34.00;;
56481;SDS011;42384;45.186;19.958;2022-10-29T14:43:18;49.28;;;33.97;;
56481;SDS011;42384;45.186;19.958;2022-10-29T14:45:47;51.38;;;32.70;;
56481;SDS011;42384;45.186;19.958;2022-10-29T14:48:13;48.58;;;32.83;;
56481;SDS011;42384;45.186;19.958;2022-10-29T14:50:45;44.55;;;32.28;;
56481;SDS011;42384;45.186;19.958;2022-10-29T14:53:19;45.45;;;32.15;;
56481;SDS011;42384;45.186;19.958;2022-10-29T14:55:47;47.80;;;32.55;;
56481;SDS011;42384;45.186;19.958;2022-10-29T15:01:14;48.65;;;32.20;;
56481;SDS011;42384;45.186;19.958;2022-10-29T15:03:34;46.88;;;31.85;;
56481;SDS011;42384;45.186;19.958;2022-10-29T15:08:39;48.50;;;32.95;;
56481;SDS011;42384;45.186;19.958;2022-10-29T15:13:33;52.08;;;33.55;;
56481;SDS011;42384;45.186;19.958;2022-10-29T15:18:25;52.95;;;33.65;;
56481;SDS011;42384;45.186;19.958;2022-10-29T15:20:53;105.63;;;67.72;;
56481;SDS011;42384;45.186;19.958;2022-10-29T15:25:47;90.60;;;58.95;;
56481;SDS011;42384;45.186;19.958;2022-10-29T15:28:18;56.92;;;38.22;;
56481;SDS011;42384;45.186;19.958;2022-10-29T15:30:47;61.80;;;42.05;;
56481;SDS011;42384;45.186;19.958;2022-10-29T15:33:15;56.42;;;39.50;;
56481;SDS011;42384;45.186;19.958;2022-10-29T15:35:48;61.13;;;37.83;;
56481;SDS011;42384;45.186;19.958;2022-10-29T15:43:37;64.82;;;42.40;;
56481;SDS011;42384;45.186;19.958;2022-10-29T15:46:34;61.70;;;40.13;;
56481;SDS011;42384;45.186;19.958;2022-10-29T15:48:58;58.60;;;39.05;;
56481;SDS011;42384;45.186;19.958;2022-10-29T15:51:25;57.78;;;38.45;;
56481;SDS011;42384;45.186;19.958;2022-10-29T15:53:55;64.50;;;39.13;;
56481;SDS011;42384;45.186;19.958;2022-10-29T15:56:22;63.05;;;40.60;;
56481;SDS011;42384;45.186;19.958;2022-10-29T15:58:49;58.22;;;39.50;;
56481;SDS011;42384;45.186;19.958;2022-10-29T16:01:16;60.95;;;40.80;;
56481;SDS011;42384;45.186;19.958;2022-10-29T16:03:43;60.17;;;40.78;;
56481;SDS011;42384;45.186;19.958;2022-10-29T16:06:09;59.13;;;38.72;;
56481;SDS011;42384;45.186;19.958;2022-10-29T16:08:36;56.47;;;39.22;;
56481;SDS011;42384;45.186;19.958;2022-10-29T16:11:05;64.18;;;41.10;;
56481;SDS011;42384;45.186;19.958;2022-10-29T16:13:35;61.17;;;38.35;;
56481;SDS011;42384;45.186;19.958;2022-10-29T16:16:01;67.35;;;41.95;;
56481;SDS011;42384;45.186;19.958;2022-10-29T16:18:27;61.23;;;41.70;;
56481;SDS011;42384;45.186;19.958;2022-10-29T16:20:58;55.63;;;38.55;;
56481;SDS011;42384;45.186;19.958;2022-10-29T16:23:24;65.97;;;39.75;;
56481;SDS011;42384;45.186;19.958;2022-10-29T16:25:51;67.03;;;42.03;;
56481;SDS011;42384;45.186;19.958;2022-10-29T16:28:17;60.10;;;41.15;;
56481;SDS011;42384;45.186;19.958;2022-10-29T16:30:47;57.25;;;38.50;;
56481;SDS011;42384;45.186;19.958;2022-10-29T16:33:15;52.72;;;37.30;;
56481;SDS011;42384;45.186;19.958;2022-10-29T16:35:42;55.15;;;36.47;;
56481;SDS011;42384;45.186;19.958;2022-10-29T16:38:08;52.95;;;37.40;;
56481;SDS011;42384;45.186;19.958;2022-10-29T16:40:35;54.28;;;36.72;;
56481;SDS011;42384;45.186;19.958;2022-10-29T16:43:01;54.78;;;36.97;;
56481;SDS011;42384;45.186;19.958;2022-10-29T16:45:28;56.10;;;36.97;;
56481;SDS011;42384;45.186;19.958;2022-10-29T16:47:54;54.80;;;38.60;;